sensor_id;sensor_type;location;lat;lon;timestamp;pressure;altitude;pressure_sealevel;temperature
77789;BMP280;66980;44.384;0.512;2023-03-01T00:01:11;102036.19;;;20.30
77789;BMP280;66980;44.384;0.512;2023-03-01T00:03:37;102030.22;;;20.26
77789;BMP280;66980;44.384;0.512;2023-03-01T00:06:04;102039.44;;;20.28
77789;BMP280;66980;44.384;0.512;2023-03-01T00:08:30;102037.19;;;20.27
77789;BMP280;66980;44.384;0.512;2023-03-01T00:11:07;102032.72;;;20.24
77789;BMP280;66980;44.384;0.512;2023-03-01T00:13:34;102032.06;;;20.17
77789;BMP280;66980;44.384;0.512;2023-03-01T00:16:06;102032.28;;;20.19
77789;BMP280;66980;44.384;0.512;2023-03-01T00:18:31;102034.09;;;20.17
77789;BMP280;66980;44.384;0.512;2023-03-01T00:20:57;102023.56;;;20.15
77789;BMP280;66980;44.384;0.512;2023-03-01T00:23:23;102017.09;;;20.13
77789;BMP280;66980;44.384;0.512;2023-03-01T00:25:49;102021.63;;;20.10
77789;BMP280;66980;44.384;0.512;2023-03-01T00:28:14;102019.38;;;20.09
77789;BMP280;66980;44.384;0.512;2023-03-01T00:30:40;102014.63;;;20.09
77789;BMP280;66980;44.384;0.512;2023-03-01T00:33:06;102014.13;;;20.05
77789;BMP280;66980;44.384;0.512;2023-03-01T00:35:35;102002.16;;;20.03
77789;BMP280;66980;44.384;0.512;2023-03-01T00:38:01;102011.66;;;20.02
77789;BMP280;66980;44.384;0.512;2023-03-01T00:40:28;102009.47;;;20.00
77789;BMP280;66980;44.384;0.512;2023-03-01T00:42:54;102009.22;;;19.98
77789;BMP280;66980;44.384;0.512;2023-03-01T00:45:19;101995.94;;;19.97
77789;BMP280;66980;44.384;0.512;2023-03-01T00:47:45;102008.75;;;19.94
77789;BMP280;66980;44.384;0.512;2023-03-01T00:50:11;102008.53;;;19.92
77789;BMP280;66980;44.384;0.512;2023-03-01T00:52:37;101999.34;;;19.84
77789;BMP280;66980;44.384;0.512;2023-03-01T00:55:03;102002.34;;;19.86
77789;BMP280;66980;44.384;0.512;2023-03-01T00:57:29;101999.09;;;19.87
77789;BMP280;66980;44.384;0.512;2023-03-01T00:59:55;102005.59;;;19.84
77789;BMP280;66980;44.384;0.512;2023-03-01T01:02:21;101999.88;;;19.82
77789;BMP280;66980;44.384;0.512;2023-03-01T01:04:46;101995.63;;;19.81
77789;BMP280;66980;44.384;0.512;2023-03-01T01:07:13;101995.38;;;19.79
77789;BMP280;66980;44.384;0.512;2023-03-01T01:09:38;101988.66;;;19.75
77789;BMP280;66980;44.384;0.512;2023-03-01T01:12:04;101999.69;;;19.75
77789;BMP280;66980;44.384;0.512;2023-03-01T01:14:30;101990.69;;;19.74
77789;BMP280;66980;44.384;0.512;2023-03-01T01:16:55;101995.72;;;19.70
77789;BMP280;66980;44.384;0.512;2023-03-01T01:19:22;101998.47;;;19.70
77789;BMP280;66980;44.384;0.512;2023-03-01T01:21:47;101982.97;;;19.67
77789;BMP280;66980;44.384;0.512;2023-03-01T01:24:14;101993.25;;;19.66
77789;BMP280;66980;44.384;0.512;2023-03-01T01:26:40;101989.53;;;19.64
77789;BMP280;66980;44.384;0.512;2023-03-01T01:29:06;101983.78;;;19.62
77789;BMP280;66980;44.384;0.512;2023-03-01T01:31:34;101982.31;;;19.61
77789;BMP280;66980;44.384;0.512;2023-03-01T01:34:01;101990.34;;;19.59
77789;BMP280;66980;44.384;0.512;2023-03-01T01:36:27;101977.88;;;19.52
77789;BMP280;66980;44.384;0.512;2023-03-01T01:38:52;101980.38;;;19.56
77789;BMP280;66980;44.384;0.512;2023-03-01T01:41:19;101978.09;;;19.54
77789;BMP280;66980;44.384;0.512;2023-03-01T01:43:48;101980.63;;;19.52
77789;BMP280;66980;44.384;0.512;2023-03-01T01:48:58;101986.19;;;19.47
77789;BMP280;66980;44.384;0.512;2023-03-01T01:51:28;101975.69;;;19.45
77789;BMP280;66980;44.384;0.512;2023-03-01T01:54:08;101968.19;;;19.45
77789;BMP280;66980;44.384;0.512;2023-03-01T01:56:37;101971.97;;;19.42
77789;BMP280;66980;44.384;0.512;2023-03-01T01:59:05;101979.97;;;19.40
77789;BMP280;66980;44.384;0.512;2023-03-01T02:01:30;101968.50;;;19.36
77789;BMP280;66980;44.384;0.512;2023-03-01T02:03:56;101959.00;;;19.37
77789;BMP280;66980;44.384;0.512;2023-03-01T02:06:27;101964.25;;;19.35
77789;BMP280;66980;44.384;0.512;2023-03-01T02:08:55;101962.00;;;19.34
77789;BMP280;66980;44.384;0.512;2023-03-01T02:11:22;101959.03;;;19.32
77789;BMP280;66980;44.384;0.512;2023-03-01T02:13:49;101956.78;;;19.30
77789;BMP280;66980;44.384;0.512;2023-03-01T02:16:16;101955.31;;;19.29
77789;BMP280;66980;44.384;0.512;2023-03-01T02:18:43;101946.81;;;19.27
77789;BMP280;66980;44.384;0.512;2023-03-01T02:21:38;101946.81;;;19.27
77789;BMP280;66980;44.384;0.512;2023-03-01T02:27:00;101944.09;;;19.21
77789;BMP280;66980;44.384;0.512;2023-03-01T02:29:26;101932.84;;;19.19
77789;BMP280;66980;44.384;0.512;2023-03-01T02:31:54;101941.63;;;19.18
77789;BMP280;66980;44.384;0.512;2023-03-01T02:34:23;101942.88;;;19.17
77789;BMP280;66980;44.384;0.512;2023-03-01T02:37:03;101939.16;;;19.14
77789;BMP280;66980;44.384;0.512;2023-03-01T02:39:36;101939.66;;;19.13
77789;BMP280;66980;44.384;0.512;2023-03-01T02:42:11;101938.19;;;19.12
77789;BMP280;66980;44.384;0.512;2023-03-01T02:44:37;101930.69;;;19.07
77789;BMP280;66980;44.384;0.512;2023-03-01T02:47:03;101923.94;;;19.08
77789;BMP280;66980;44.384;0.512;2023-03-01T02:49:32;101925.19;;;19.07
77789;BMP280;66980;44.384;0.512;2023-03-01T02:52:11;101922.22;;;19.05
77789;BMP280;66980;44.384;0.512;2023-03-01T02:54:47;101914.25;;;19.01
77789;BMP280;66980;44.384;0.512;2023-03-01T02:57:14;101910.75;;;19.01
77789;BMP280;66980;44.384;0.512;2023-03-01T02:59:40;101913.50;;;19.01
77789;BMP280;66980;44.384;0.512;2023-03-01T03:02:08;101911.75;;;18.98
77789;BMP280;66980;44.384;0.512;2023-03-01T03:04:45;101908.28;;;18.97
77789;BMP280;66980;44.384;0.512;2023-03-01T03:07:10;101911.28;;;18.93
77789;BMP280;66980;44.384;0.512;2023-03-01T03:09:36;101907.78;;;18.93
77789;BMP280;66980;44.384;0.512;2023-03-01T03:12:01;101907.09;;;18.92
77789;BMP280;66980;44.384;0.512;2023-03-01T03:14:27;101909.59;;;18.90
77789;BMP280;66980;44.384;0.512;2023-03-01T03:16:52;101895.59;;;18.88
77789;BMP280;66980;44.384;0.512;2023-03-01T03:19:19;101903.63;;;18.86
77789;BMP280;66980;44.384;0.512;2023-03-01T03:21:44;101908.09;;;18.84
77789;BMP280;66980;44.384;0.512;2023-03-01T03:24:10;101897.88;;;18.84
77789;BMP280;66980;44.384;0.512;2023-03-01T03:26:36;101908.66;;;18.82
77789;BMP280;66980;44.384;0.512;2023-03-01T03:29:02;101902.69;;;18.78
77789;BMP280;66980;44.384;0.512;2023-03-01T03:31:27;101897.19;;;18.78
77789;BMP280;66980;44.384;0.512;2023-03-01T03:33:53;101890.69;;;18.76
77789;BMP280;66980;44.384;0.512;2023-03-01T03:36:21;101892.66;;;18.75
77789;BMP280;66980;44.384;0.512;2023-03-01T03:38:47;101884.72;;;18.71
77789;BMP280;66980;44.384;0.512;2023-03-01T03:41:14;101883.44;;;18.73
77789;BMP280;66980;44.384;0.512;2023-03-01T03:43:40;101879.72;;;18.70
77789;BMP280;66980;44.384;0.512;2023-03-01T03:46:07;101879.72;;;18.70
77789;BMP280;66980;44.384;0.512;2023-03-01T03:48:36;101872.47;;;18.67
77789;BMP280;66980;44.384;0.512;2023-03-01T03:51:02;101882.00;;;18.66
77789;BMP280;66980;44.384;0.512;2023-03-01T03:53:30;101870.31;;;18.60
77789;BMP280;66980;44.384;0.512;2023-03-01T03:55:56;101884.53;;;18.64
77789;BMP280;66980;44.384;0.512;2023-03-01T03:58:23;101881.53;;;18.62
77789;BMP280;66980;44.384;0.512;2023-03-01T04:00:52;101882.00;;;18.60
77789;BMP280;66980;44.384;0.512;2023-03-01T04:03:20;101887.28;;;18.58
77789;BMP280;66980;44.384;0.512;2023-03-01T04:05:46;101891.78;;;18.56
77789;BMP280;66980;44.384;0.512;2023-03-01T04:08:13;101872.66;;;18.44
77789;BMP280;66980;44.384;0.512;2023-03-01T04:10:46;101885.34;;;18.53
77789;BMP280;66980;44.384;0.512;2023-03-01T04:13:14;101887.84;;;18.51
77789;BMP280;66980;44.384;0.512;2023-03-01T04:15:40;101887.84;;;18.51
77789;BMP280;66980;44.384;0.512;2023-03-01T04:18:06;101871.38;;;18.45
77789;BMP280;66980;44.384;0.512;2023-03-01T04:20:34;101879.84;;;18.47
77789;BMP280;66980;44.384;0.512;2023-03-01T04:23:08;101887.34;;;18.47
77789;BMP280;66980;44.384;0.512;2023-03-01T04:28:14;101878.41;;;18.41
77789;BMP280;66980;44.384;0.512;2023-03-01T04:30:40;101873.94;;;18.38
77789;BMP280;66980;44.384;0.512;2023-03-01T04:33:08;101882.44;;;18.40
77789;BMP280;66980;44.384;0.512;2023-03-01T04:35:35;101861.50;;;18.31
77789;BMP280;66980;44.384;0.512;2023-03-01T04:38:01;101886.16;;;18.37
77789;BMP280;66980;44.384;0.512;2023-03-01T04:40:26;101877.69;;;18.35
77789;BMP280;66980;44.384;0.512;2023-03-01T04:42:52;101876.22;;;18.34
77789;BMP280;66980;44.384;0.512;2023-03-01T04:45:17;101864.00;;;18.29
77789;BMP280;66980;44.384;0.512;2023-03-01T04:47:45;101880.75;;;18.31
77789;BMP280;66980;44.384;0.512;2023-03-01T04:50:11;101880.75;;;18.31
77789;BMP280;66980;44.384;0.512;2023-03-01T04:52:38;101867.97;;;18.28
77789;BMP280;66980;44.384;0.512;2023-03-01T04:55:03;101871.22;;;18.27
77789;BMP280;66980;44.384;0.512;2023-03-01T04:57:29;101873.25;;;18.26
77789;BMP280;66980;44.384;0.512;2023-03-01T04:59:55;101873.75;;;18.25
77789;BMP280;66980;44.384;0.512;2023-03-01T05:02:20;101871.03;;;18.19
77789;BMP280;66980;44.384;0.512;2023-03-01T05:04:46;101874.03;;;18.21
77789;BMP280;66980;44.384;0.512;2023-03-01T05:07:11;101865.56;;;18.13
77789;BMP280;66980;44.384;0.512;2023-03-01T05:09:38;101878.50;;;18.18
77789;BMP280;66980;44.384;0.512;2023-03-01T05:12:04;101872.81;;;18.16
77789;BMP280;66980;44.384;0.512;2023-03-01T05:14:30;101878.31;;;18.16
77789;BMP280;66980;44.384;0.512;2023-03-01T05:16:55;101876.53;;;18.13
77789;BMP280;66980;44.384;0.512;2023-03-01T05:19:29;101867.06;;;18.09
77789;BMP280;66980;44.384;0.512;2023-03-01T05:21:56;101869.34;;;18.10
77789;BMP280;66980;44.384;0.512;2023-03-01T05:24:34;101865.06;;;18.09
77789;BMP280;66980;44.384;0.512;2023-03-01T05:27:02;101864.34;;;18.03
77789;BMP280;66980;44.384;0.512;2023-03-01T05:29:28;101861.38;;;18.01
77789;BMP280;66980;44.384;0.512;2023-03-01T05:31:56;101869.34;;;18.05
77789;BMP280;66980;44.384;0.512;2023-03-01T05:34:28;101864.34;;;18.03
77789;BMP280;66980;44.384;0.512;2023-03-01T05:36:54;101862.88;;;18.02
77789;BMP280;66980;44.384;0.512;2023-03-01T05:39:21;101868.88;;;18.01
77789;BMP280;66980;44.384;0.512;2023-03-01T05:41:48;101866.63;;;17.99
77789;BMP280;66980;44.384;0.512;2023-03-01T05:44:14;101856.16;;;17.97
77789;BMP280;66980;44.384;0.512;2023-03-01T05:46:39;101869.13;;;17.97
77789;BMP280;66980;44.384;0.512;2023-03-01T05:49:05;101870.41;;;17.96
77789;BMP280;66980;44.384;0.512;2023-03-01T05:51:30;101865.38;;;17.94
77789;BMP280;66980;44.384;0.512;2023-03-01T05:53:56;101863.13;;;17.93
77789;BMP280;66980;44.384;0.512;2023-03-01T05:56:21;101855.19;;;17.84
77789;BMP280;66980;44.384;0.512;2023-03-01T05:58:48;101864.91;;;17.90
77789;BMP280;66980;44.384;0.512;2023-03-01T06:01:14;101867.16;;;17.86
77789;BMP280;66980;44.384;0.512;2023-03-01T06:03:40;101866.66;;;17.88
77789;BMP280;66980;44.384;0.512;2023-03-01T06:06:05;101858.69;;;17.84
77789;BMP280;66980;44.384;0.512;2023-03-01T06:08:31;101861.19;;;17.82
77789;BMP280;66980;44.384;0.512;2023-03-01T06:10:56;101859.94;;;17.83
77789;BMP280;66980;44.384;0.512;2023-03-01T06:13:23;101860.47;;;17.82
77789;BMP280;66980;44.384;0.512;2023-03-01T06:15:49;101848.72;;;17.76
77789;BMP280;66980;44.384;0.512;2023-03-01T06:18:15;101863.47;;;17.78
77789;BMP280;66980;44.384;0.512;2023-03-01T06:20:40;101855.25;;;17.72
77789;BMP280;66980;44.384;0.512;2023-03-01T06:23:06;101859.22;;;17.77
77789;BMP280;66980;44.384;0.512;2023-03-01T06:25:31;101843.03;;;17.68
77789;BMP280;66980;44.384;0.512;2023-03-01T06:27:57;101864.72;;;17.71
77789;BMP280;66980;44.384;0.512;2023-03-01T06:30:25;101862.97;;;17.68
77789;BMP280;66980;44.384;0.512;2023-03-01T06:32:51;101859.00;;;17.64
77789;BMP280;66980;44.384;0.512;2023-03-01T06:35:17;101851.78;;;17.61
77789;BMP280;66980;44.384;0.512;2023-03-01T06:37:43;101863.25;;;17.65
77789;BMP280;66980;44.384;0.512;2023-03-01T06:40:10;101860.50;;;17.65
77789;BMP280;66980;44.384;0.512;2023-03-01T06:42:40;101852.03;;;17.63
77789;BMP280;66980;44.384;0.512;2023-03-01T06:45:07;101860.75;;;17.61
77789;BMP280;66980;44.384;0.512;2023-03-01T06:47:33;101846.28;;;17.55
77789;BMP280;66980;44.384;0.512;2023-03-01T06:50:00;101859.00;;;17.58
77789;BMP280;66980;44.384;0.512;2023-03-01T06:52:25;101850.28;;;17.54
77789;BMP280;66980;44.384;0.512;2023-03-01T06:54:51;101853.78;;;17.55
77789;BMP280;66980;44.384;0.512;2023-03-01T06:57:16;101859.25;;;17.55
77789;BMP280;66980;44.384;0.512;2023-03-01T06:59:42;101862.28;;;17.57
77789;BMP280;66980;44.384;0.512;2023-03-01T07:02:11;101876.00;;;17.57
77789;BMP280;66980;44.384;0.512;2023-03-01T07:04:37;101869.75;;;17.56
77789;BMP280;66980;44.384;0.512;2023-03-01T07:07:02;101868.03;;;17.53
77789;BMP280;66980;44.384;0.512;2023-03-01T07:09:28;101870.72;;;17.59
77789;BMP280;66980;44.384;0.512;2023-03-01T07:11:53;101871.72;;;17.61
77789;BMP280;66980;44.384;0.512;2023-03-01T07:14:19;101868.19;;;17.83
77789;BMP280;66980;44.384;0.512;2023-03-01T07:16:45;101871.13;;;17.96
77789;BMP280;66980;44.384;0.512;2023-03-01T07:19:11;101859.84;;;18.11
77789;BMP280;66980;44.384;0.512;2023-03-01T07:21:36;101865.38;;;18.41
77789;BMP280;66980;44.384;0.512;2023-03-01T07:24:07;101876.59;;;18.55
77789;BMP280;66980;44.384;0.512;2023-03-01T07:26:33;101862.03;;;18.60
77789;BMP280;66980;44.384;0.512;2023-03-01T07:29:00;101873.19;;;18.73
77789;BMP280;66980;44.384;0.512;2023-03-01T07:31:25;101873.81;;;18.90
77789;BMP280;66980;44.384;0.512;2023-03-01T07:33:53;101884.00;;;19.01
77789;BMP280;66980;44.384;0.512;2023-03-01T07:36:19;101876.59;;;19.15
77789;BMP280;66980;44.384;0.512;2023-03-01T07:38:45;101880.72;;;19.27
77789;BMP280;66980;44.384;0.512;2023-03-01T07:41:10;101879.41;;;19.34
77789;BMP280;66980;44.384;0.512;2023-03-01T07:43:36;101886.75;;;19.50
77789;BMP280;66980;44.384;0.512;2023-03-01T07:46:02;101888.91;;;19.82
77789;BMP280;66980;44.384;0.512;2023-03-01T07:48:29;101889.19;;;19.97
77789;BMP280;66980;44.384;0.512;2023-03-01T07:50:57;101893.03;;;20.13
77789;BMP280;66980;44.384;0.512;2023-03-01T07:53:23;101879.38;;;20.20
77789;BMP280;66980;44.384;0.512;2023-03-01T07:55:48;101891.78;;;20.46
77789;BMP280;66980;44.384;0.512;2023-03-01T07:58:14;101890.66;;;20.55
77789;BMP280;66980;44.384;0.512;2023-03-01T08:00:39;101894.09;;;20.74
77789;BMP280;66980;44.384;0.512;2023-03-01T08:03:05;101893.66;;;20.70
77789;BMP280;66980;44.384;0.512;2023-03-01T08:05:30;101895.66;;;20.88
77789;BMP280;66980;44.384;0.512;2023-03-01T08:07:56;101896.84;;;21.06
77789;BMP280;66980;44.384;0.512;2023-03-01T08:10:21;101883.25;;;21.22
77789;BMP280;66980;44.384;0.512;2023-03-01T08:12:47;101884.09;;;21.30
77789;BMP280;66980;44.384;0.512;2023-03-01T08:15:12;101874.75;;;21.46
77789;BMP280;66980;44.384;0.512;2023-03-01T08:17:38;101876.09;;;21.53
77789;BMP280;66980;44.384;0.512;2023-03-01T08:20:04;101883.84;;;21.67
77789;BMP280;66980;44.384;0.512;2023-03-01T08:22:31;101879.81;;;21.68
77789;BMP280;66980;44.384;0.512;2023-03-01T08:24:56;101872.69;;;21.73
77789;BMP280;66980;44.384;0.512;2023-03-01T08:27:22;101883.50;;;21.84
77789;BMP280;66980;44.384;0.512;2023-03-01T08:29:47;101878.31;;;21.81
77789;BMP280;66980;44.384;0.512;2023-03-01T08:32:13;101881.88;;;21.89
77789;BMP280;66980;44.384;0.512;2023-03-01T08:34:38;101873.28;;;21.92
77789;BMP280;66980;44.384;0.512;2023-03-01T08:37:04;101868.81;;;21.89
77789;BMP280;66980;44.384;0.512;2023-03-01T08:39:29;101884.34;;;21.92
77789;BMP280;66980;44.384;0.512;2023-03-01T08:41:55;101877.50;;;21.93
77789;BMP280;66980;44.384;0.512;2023-03-01T08:44:21;101886.03;;;21.95
77789;BMP280;66980;44.384;0.512;2023-03-01T08:46:46;101869.38;;;21.88
77789;BMP280;66980;44.384;0.512;2023-03-01T08:49:14;101876.59;;;21.78
77789;BMP280;66980;44.384;0.512;2023-03-01T08:51:41;101893.19;;;21.78
77789;BMP280;66980;44.384;0.512;2023-03-01T08:54:19;101882.88;;;21.78
77789;BMP280;66980;44.384;0.512;2023-03-01T08:56:45;101874.38;;;21.76
77789;BMP280;66980;44.384;0.512;2023-03-01T08:59:12;101878.94;;;21.74
77789;BMP280;66980;44.384;0.512;2023-03-01T09:01:38;101869.56;;;21.56
77789;BMP280;66980;44.384;0.512;2023-03-01T09:04:05;101869.56;;;21.56
77789;BMP280;66980;44.384;0.512;2023-03-01T09:06:32;101863.13;;;21.61
77789;BMP280;66980;44.384;0.512;2023-03-01T09:09:02;101855.63;;;21.48
77789;BMP280;66980;44.384;0.512;2023-03-01T09:11:29;101846.09;;;21.36
77789;BMP280;66980;44.384;0.512;2023-03-01T09:13:55;101853.09;;;21.24
77789;BMP280;66980;44.384;0.512;2023-03-01T09:16:22;101846.50;;;21.00
77789;BMP280;66980;44.384;0.512;2023-03-01T09:18:53;101848.16;;;20.77
77789;BMP280;66980;44.384;0.512;2023-03-01T09:21:20;101848.16;;;20.77
77789;BMP280;66980;44.384;0.512;2023-03-01T09:23:46;101834.94;;;20.88
77789;BMP280;66980;44.384;0.512;2023-03-01T09:26:15;101825.13;;;21.01
77789;BMP280;66980;44.384;0.512;2023-03-01T09:28:45;101829.19;;;21.13
77789;BMP280;66980;44.384;0.512;2023-03-01T09:31:11;101817.19;;;21.10
77789;BMP280;66980;44.384;0.512;2023-03-01T09:33:38;101810.72;;;21.21
77789;BMP280;66980;44.384;0.512;2023-03-01T09:36:06;101821.84;;;21.29
77789;BMP280;66980;44.384;0.512;2023-03-01T09:38:32;101816.00;;;21.32
77789;BMP280;66980;44.384;0.512;2023-03-01T09:40:59;101814.53;;;21.31
77789;BMP280;66980;44.384;0.512;2023-03-01T09:43:41;101811.22;;;21.33
77789;BMP280;66980;44.384;0.512;2023-03-01T09:46:10;101806.44;;;21.33
77789;BMP280;66980;44.384;0.512;2023-03-01T09:49:07;101805.34;;;21.36
77789;BMP280;66980;44.384;0.512;2023-03-01T09:51:36;101795.81;;;21.37
77789;BMP280;66980;44.384;0.512;2023-03-01T09:54:03;101790.19;;;21.30
77789;BMP280;66980;44.384;0.512;2023-03-01T09:56:32;101792.31;;;21.37
77789;BMP280;66980;44.384;0.512;2023-03-01T10:01:56;101775.56;;;21.35
77789;BMP280;66980;44.384;0.512;2023-03-01T10:09:30;101774.88;;;21.42
77789;BMP280;66980;44.384;0.512;2023-03-01T10:11:57;101768.09;;;21.43
77789;BMP280;66980;44.384;0.512;2023-03-01T10:14:39;101771.25;;;21.47
77789;BMP280;66980;44.384;0.512;2023-03-01T10:19:40;101767.88;;;21.41
77789;BMP280;66980;44.384;0.512;2023-03-01T10:22:27;101768.28;;;21.45
77789;BMP280;66980;44.384;0.512;2023-03-01T10:24:55;101771.38;;;21.41
77789;BMP280;66980;44.384;0.512;2023-03-01T10:27:29;101770.22;;;21.37
77789;BMP280;66980;44.384;0.512;2023-03-01T10:30:20;101760.97;;;21.34
77789;BMP280;66980;44.384;0.512;2023-03-01T10:32:48;101760.75;;;21.32
77789;BMP280;66980;44.384;0.512;2023-03-01T10:35:22;101768.09;;;21.30
77789;BMP280;66980;44.384;0.512;2023-03-01T10:38:10;101756.13;;;21.27
77789;BMP280;66980;44.384;0.512;2023-03-01T10:40:56;101756.13;;;21.27
77789;BMP280;66980;44.384;0.512;2023-03-01T10:43:23;101748.34;;;21.26
77789;BMP280;66980;44.384;0.512;2023-03-01T10:45:49;101751.00;;;21.31
77789;BMP280;66980;44.384;0.512;2023-03-01T10:48:17;101751.44;;;21.35
77789;BMP280;66980;44.384;0.512;2023-03-01T10:50:46;101748.34;;;21.39
77789;BMP280;66980;44.384;0.512;2023-03-01T10:53:23;101734.13;;;21.35
77789;BMP280;66980;44.384;0.512;2023-03-01T10:55:58;101738.09;;;21.47
77789;BMP280;66980;44.384;0.512;2023-03-01T10:58:24;101734.28;;;21.50
77789;BMP280;66980;44.384;0.512;2023-03-01T11:00:58;101731.50;;;21.50
77789;BMP280;66980;44.384;0.512;2023-03-01T11:03:38;101735.63;;;21.57
77789;BMP280;66980;44.384;0.512;2023-03-01T11:11:32;101723.44;;;21.52
77789;BMP280;66980;44.384;0.512;2023-03-01T11:14:01;101718.00;;;21.60
77789;BMP280;66980;44.384;0.512;2023-03-01T11:16:36;101706.19;;;21.59
77789;BMP280;66980;44.384;0.512;2023-03-01T11:21:38;101704.00;;;21.44
77789;BMP280;66980;44.384;0.512;2023-03-01T11:24:09;101711.91;;;21.61
77789;BMP280;66980;44.384;0.512;2023-03-01T11:26:38;101695.72;;;21.65
77789;BMP280;66980;44.384;0.512;2023-03-01T11:29:11;101699.53;;;21.76
77789;BMP280;66980;44.384;0.512;2023-03-01T11:31:39;101700.94;;;21.90
77789;BMP280;66980;44.384;0.512;2023-03-01T11:34:08;101706.06;;;22.07
77789;BMP280;66980;44.384;0.512;2023-03-01T11:36:55;101707.78;;;22.17
77789;BMP280;66980;44.384;0.512;2023-03-01T11:39:39;101695.31;;;22.24
77789;BMP280;66980;44.384;0.512;2023-03-01T11:44:55;101696.47;;;22.36
77789;BMP280;66980;44.384;0.512;2023-03-01T11:52:29;101680.56;;;22.58
77789;BMP280;66980;44.384;0.512;2023-03-01T11:57:49;101676.38;;;22.72
77789;BMP280;66980;44.384;0.512;2023-03-01T12:00:36;101675.47;;;22.77
77789;BMP280;66980;44.384;0.512;2023-03-01T12:06:07;101670.34;;;22.89
77789;BMP280;66980;44.384;0.512;2023-03-01T12:09:07;101653.72;;;22.81
77789;BMP280;66980;44.384;0.512;2023-03-01T12:19:21;101644.34;;;23.00
77789;BMP280;66980;44.384;0.512;2023-03-01T12:27:58;101643.63;;;23.07
77789;BMP280;66980;44.384;0.512;2023-03-01T12:44:08;101602.28;;;23.24
77789;BMP280;66980;44.384;0.512;2023-03-01T12:46:46;101605.44;;;23.43
77789;BMP280;66980;44.384;0.512;2023-03-01T12:49:32;101594.34;;;23.59
77789;BMP280;66980;44.384;0.512;2023-03-01T12:52:13;101597.47;;;23.70
77789;BMP280;66980;44.384;0.512;2023-03-01T12:54:41;101584.38;;;23.71
77789;BMP280;66980;44.384;0.512;2023-03-01T12:57:29;101581.19;;;23.74
77789;BMP280;66980;44.384;0.512;2023-03-01T13:03:48;101581.56;;;23.79
77789;BMP280;66980;44.384;0.512;2023-03-01T13:06:04;101579.72;;;23.81
77789;BMP280;66980;44.384;0.512;2023-03-01T13:08:39;101579.72;;;23.81
77789;BMP280;66980;44.384;0.512;2023-03-01T13:11:17;101564.38;;;23.80
77789;BMP280;66980;44.384;0.512;2023-03-01T13:13:43;101566.59;;;23.82
77789;BMP280;66980;44.384;0.512;2023-03-01T13:16:39;101564.19;;;23.86
77789;BMP280;66980;44.384;0.512;2023-03-01T13:19:16;101556.41;;;23.84
77789;BMP280;66980;44.384;0.512;2023-03-01T13:21:46;101559.41;;;23.63
77789;BMP280;66980;44.384;0.512;2023-03-01T13:24:25;101555.38;;;23.49
77789;BMP280;66980;44.384;0.512;2023-03-01T13:32:23;101545.41;;;23.38
77789;BMP280;66980;44.384;0.512;2023-03-01T13:34:54;101542.63;;;23.38
77789;BMP280;66980;44.384;0.512;2023-03-01T13:37:24;101542.66;;;23.31
77789;BMP280;66980;44.384;0.512;2023-03-01T13:39:51;101539.31;;;23.32
77789;BMP280;66980;44.384;0.512;2023-03-01T13:42:36;101542.63;;;23.38
77789;BMP280;66980;44.384;0.512;2023-03-01T13:47:43;101523.44;;;23.02
77789;BMP280;66980;44.384;0.512;2023-03-01T13:50:20;101524.13;;;22.57
77789;BMP280;66980;44.384;0.512;2023-03-01T13:52:59;101524.47;;;22.53
77789;BMP280;66980;44.384;0.512;2023-03-01T13:55:34;101516.03;;;22.74
77789;BMP280;66980;44.384;0.512;2023-03-01T13:58:03;101519.19;;;22.93
77789;BMP280;66980;44.384;0.512;2023-03-01T14:00:37;101534.13;;;23.13
77789;BMP280;66980;44.384;0.512;2023-03-01T14:03:15;101523.25;;;23.23
77789;BMP280;66980;44.384;0.512;2023-03-01T14:05:44;101520.50;;;23.23
77789;BMP280;66980;44.384;0.512;2023-03-01T14:08:24;101524.75;;;23.32
77789;BMP280;66980;44.384;0.512;2023-03-01T14:14:06;101525.09;;;23.36
77789;BMP280;66980;44.384;0.512;2023-03-01T14:16:54;101516.97;;;23.30
77789;BMP280;66980;44.384;0.512;2023-03-01T14:19:26;101512.19;;;23.31
77789;BMP280;66980;44.384;0.512;2023-03-01T14:22:22;101519.19;;;23.39
77789;BMP280;66980;44.384;0.512;2023-03-01T14:24:55;101520.09;;;23.42
77789;BMP280;66980;44.384;0.512;2023-03-01T14:27:23;101502.38;;;23.37
77789;BMP280;66980;44.384;0.512;2023-03-01T14:29:56;101509.94;;;23.44
77789;BMP280;66980;44.384;0.512;2023-03-01T14:32:26;101493.53;;;23.39
77789;BMP280;66980;44.384;0.512;2023-03-01T14:34:52;101504.38;;;23.44
77789;BMP280;66980;44.384;0.512;2023-03-01T14:37:25;101501.81;;;23.46
77789;BMP280;66980;44.384;0.512;2023-03-01T14:39:52;101506.63;;;23.46
77789;BMP280;66980;44.384;0.512;2023-03-01T14:42:19;101500.34;;;23.45
77789;BMP280;66980;44.384;0.512;2023-03-01T14:44:47;101480.38;;;23.39
77789;BMP280;66980;44.384;0.512;2023-03-01T14:47:20;101491.44;;;23.47
77789;BMP280;66980;44.384;0.512;2023-03-01T14:49:55;101486.28;;;23.43
77789;BMP280;66980;44.384;0.512;2023-03-01T14:52:28;101491.84;;;23.43
77789;BMP280;66980;44.384;0.512;2023-03-01T14:54:56;101483.72;;;23.38
77789;BMP280;66980;44.384;0.512;2023-03-01T14:57:24;101487.41;;;23.40
77789;BMP280;66980;44.384;0.512;2023-03-01T14:59:55;101500.34;;;23.45
77789;BMP280;66980;44.384;0.512;2023-03-01T15:02:24;101499.59;;;23.45
77789;BMP280;66980;44.384;0.512;2023-03-01T15:04:52;101485.22;;;23.39
77789;BMP280;66980;44.384;0.512;2023-03-01T15:07:22;101485.59;;;23.35
77789;BMP280;66980;44.384;0.512;2023-03-01T15:09:51;101488.91;;;23.34
77789;BMP280;66980;44.384;0.512;2023-03-01T15:12:36;101486.66;;;23.40
77789;BMP280;66980;44.384;0.512;2023-03-01T15:15:23;101487.78;;;23.37
77789;BMP280;66980;44.384;0.512;2023-03-01T15:17:58;101485.75;;;23.37
77789;BMP280;66980;44.384;0.512;2023-03-01T15:20:26;101487.78;;;23.37
77789;BMP280;66980;44.384;0.512;2023-03-01T15:22:55;101480.06;;;23.28
77789;BMP280;66980;44.384;0.512;2023-03-01T15:25:24;101487.63;;;23.27
77789;BMP280;66980;44.384;0.512;2023-03-01T15:27:52;101483.34;;;23.26
77789;BMP280;66980;44.384;0.512;2023-03-01T15:30:30;101474.69;;;23.30